createdAt,value
2022-12-01T00:01:03.485Z,1.83
2022-12-01T00:05:15.843Z,1.66
2022-12-01T00:09:46.645Z,1.48
2022-12-01T00:13:59.377Z,1.55
2022-12-01T00:18:11.659Z,1.72
2022-12-01T00:22:24.083Z,1.61
2022-12-01T00:26:38.733Z,1.69
2022-12-01T00:30:51.019Z,1.58
2022-12-01T00:35:04.555Z,1.75
2022-12-01T00:39:17.582Z,1.70
2022-12-01T00:43:29.889Z,1.76
2022-12-01T00:47:42.160Z,1.85
2022-12-01T00:51:54.565Z,1.69
2022-12-01T00:56:07.694Z,1.79
2022-12-01T01:00:20.183Z,1.77
2022-12-01T01:04:34.480Z,1.80
2022-12-01T01:08:46.957Z,1.79
2022-12-01T01:12:59.230Z,1.90
2022-12-01T01:17:11.498Z,1.94
2022-12-01T01:21:23.781Z,1.95
2022-12-01T01:25:36.111Z,1.88
2022-12-01T01:29:48.571Z,2.00
2022-12-01T01:34:01.547Z,2.19
2022-12-01T01:38:13.927Z,2.17
2022-12-01T01:42:26.225Z,2.16
2022-12-01T01:46:38.556Z,2.06
2022-12-01T01:50:50.861Z,2.03
2022-12-01T01:55:03.695Z,2.12
2022-12-01T01:59:21.525Z,2.12
2022-12-01T02:03:44.204Z,1.83
2022-12-01T02:07:59.288Z,1.83
2022-12-01T02:12:28.810Z,1.74
2022-12-01T02:17:10.354Z,1.82
2022-12-01T02:21:32.267Z,1.78
2022-12-01T02:26:12.544Z,2.11
2022-12-01T02:30:41.764Z,2.23
2022-12-01T02:35:09.304Z,2.13
2022-12-01T02:39:39.847Z,2.08
2022-12-01T02:44:14.807Z,2.14
2022-12-01T02:48:34.536Z,2.25
2022-12-01T02:52:46.932Z,2.12
2022-12-01T02:57:13.376Z,2.06
2022-12-01T03:01:28.475Z,2.11
2022-12-01T03:05:43.478Z,2.14
2022-12-01T03:10:04.886Z,2.33
2022-12-01T03:14:42.275Z,2.46
2022-12-01T03:19:04.354Z,2.57
2022-12-01T03:23:22.639Z,2.56
2022-12-01T03:27:38.586Z,2.58
2022-12-01T03:31:57.661Z,2.50
2022-12-01T03:36:15.978Z,2.42
2022-12-01T03:40:31.464Z,2.55
2022-12-01T03:44:51.798Z,2.53
2022-12-01T03:49:06.447Z,2.52
2022-12-01T03:53:25.120Z,2.54
2022-12-01T03:57:45.136Z,2.53
2022-12-01T04:01:58.938Z,2.55
2022-12-01T04:06:11.282Z,2.37
2022-12-01T04:10:23.583Z,2.35
2022-12-01T04:14:35.947Z,2.43
2022-12-01T04:18:48.329Z,2.48
2022-12-01T04:23:00.620Z,2.39
2022-12-01T04:27:13.423Z,2.41
2022-12-01T04:31:25.801Z,2.61
2022-12-01T04:35:57.157Z,2.59
2022-12-01T04:40:09.922Z,2.58
2022-12-01T04:44:34.279Z,2.71
2022-12-01T04:48:47.186Z,2.63
2022-12-01T04:52:59.429Z,2.57
2022-12-01T04:57:21.820Z,2.73
2022-12-01T05:01:34.765Z,2.67
2022-12-01T05:05:47.069Z,2.61
2022-12-01T05:09:59.360Z,2.66
2022-12-01T05:14:11.731Z,2.79
2022-12-01T05:18:24.036Z,2.59
2022-12-01T05:23:03.809Z,2.62
2022-12-01T05:27:08.596Z,2.63
2022-12-01T05:31:20.907Z,2.60
2022-12-01T05:35:36.282Z,2.64
2022-12-01T05:39:48.873Z,2.70
2022-12-01T05:44:01.272Z,2.73
2022-12-01T05:48:23.434Z,2.82
2022-12-01T05:52:36.529Z,2.62
2022-12-01T05:56:48.843Z,2.54
2022-12-01T06:01:01.258Z,2.56
2022-12-01T06:05:13.958Z,2.63
2022-12-01T06:09:26.227Z,2.76
2022-12-01T06:13:38.701Z,2.72
2022-12-01T06:17:50.994Z,2.52
2022-12-01T06:22:03.440Z,2.50
2022-12-01T06:26:15.774Z,2.61
2022-12-01T06:30:28.531Z,2.39
2022-12-01T06:34:40.857Z,2.39
2022-12-01T06:38:53.237Z,2.47
2022-12-01T06:43:05.856Z,2.31
2022-12-01T06:47:18.146Z,2.46
2022-12-01T06:51:31.258Z,2.52
2022-12-01T06:55:43.917Z,2.57
2022-12-01T06:59:56.644Z,2.68
2022-12-01T07:04:09.513Z,2.90
2022-12-01T07:08:21.769Z,2.76
2022-12-01T07:12:34.092Z,2.74
2022-12-01T07:16:46.432Z,2.98
2022-12-01T07:21:03.309Z,2.68
2022-12-01T07:25:15.753Z,2.68
2022-12-01T07:29:32.155Z,2.74
2022-12-01T07:33:44.848Z,2.79
2022-12-01T07:37:59.949Z,3.00
2022-12-01T07:42:12.265Z,3.20
2022-12-01T07:46:27.477Z,3.20
2022-12-01T07:50:39.847Z,3.11
2022-12-01T07:54:52.204Z,3.02
2022-12-01T07:59:04.508Z,3.32
2022-12-01T08:03:16.879Z,3.51
2022-12-01T08:07:30.091Z,3.48
2022-12-01T08:11:42.486Z,3.45
2022-12-01T08:15:55.065Z,3.49
2022-12-01T08:20:08.858Z,3.36
2022-12-01T08:24:21.148Z,3.48
2022-12-01T08:28:36.202Z,3.35
2022-12-01T08:32:48.606Z,3.65
2022-12-01T08:37:00.869Z,3.74
2022-12-01T08:41:23.233Z,4.03
2022-12-01T08:45:35.535Z,3.79
2022-12-01T08:49:48.294Z,3.99
2022-12-01T08:54:02.178Z,4.04
2022-12-01T08:58:14.444Z,3.81
2022-12-01T09:02:26.857Z,3.79
2022-12-01T09:06:42.368Z,4.07
2022-12-01T09:10:54.661Z,4.12
2022-12-01T09:15:07.255Z,4.17
2022-12-01T09:19:24.507Z,4.24
2022-12-01T09:23:37.509Z,4.16
2022-12-01T09:27:49.773Z,4.02
2022-12-01T09:32:02.463Z,4.16
2022-12-01T09:36:18.739Z,4.22
2022-12-01T09:40:35.744Z,4.11
2022-12-01T09:44:53.917Z,4.20
2022-12-01T09:49:09.472Z,4.49
2022-12-01T09:53:26.051Z,4.35
2022-12-01T09:57:41.112Z,4.10
2022-12-01T10:02:00.976Z,4.05
2022-12-01T10:06:29.150Z,3.80
2022-12-01T10:10:46.037Z,3.93
2022-12-01T10:15:33.710Z,4.08
2022-12-01T10:19:57.866Z,4.02
2022-12-01T10:24:34.005Z,4.40
2022-12-01T10:28:49.250Z,4.30
2022-12-01T10:33:22.429Z,4.31
2022-12-01T10:37:34.762Z,4.35
2022-12-01T10:41:49.711Z,4.50
2022-12-01T10:46:23.974Z,4.52
2022-12-01T10:50:37.232Z,4.50
2022-12-01T10:54:49.495Z,4.63
2022-12-01T10:59:18.371Z,4.61
2022-12-01T11:03:38.117Z,4.51
2022-12-01T11:07:51.263Z,4.53
2022-12-01T11:12:05.390Z,4.06
2022-12-01T11:16:44.118Z,3.89
2022-12-01T11:21:15.741Z,3.78
2022-12-01T11:25:28.026Z,4.19
2022-12-01T11:29:40.935Z,4.16
2022-12-01T11:33:55.612Z,4.32
2022-12-01T11:42:49.117Z,3.81
2022-12-01T11:47:24.411Z,4.03
2022-12-01T11:51:38.431Z,4.25
2022-12-01T11:55:50.812Z,4.03
2022-12-01T12:00:14.367Z,3.80
2022-12-01T12:04:35.764Z,3.92
2022-12-01T12:09:20.199Z,4.05
2022-12-01T12:13:53.841Z,4.14
2022-12-01T12:18:22.071Z,4.15
2022-12-01T12:23:01.489Z,4.39
2022-12-01T12:27:16.607Z,4.17
2022-12-01T12:31:46.785Z,3.80
2022-12-01T12:36:17.175Z,3.77
2022-12-01T12:40:41.821Z,3.61
2022-12-01T12:45:30.698Z,3.86
2022-12-01T12:49:54.983Z,3.67
2022-12-01T12:54:22.454Z,3.81
2022-12-01T12:58:43.964Z,4.01
2022-12-01T13:03:22.227Z,3.94
2022-12-01T13:07:53.359Z,3.76
2022-12-01T13:12:10.722Z,3.81
2022-12-01T13:16:51.249Z,3.85
2022-12-01T13:21:05.383Z,4.05
2022-12-01T13:25:35.188Z,4.08
2022-12-01T13:29:50.588Z,4.14
2022-12-01T13:34:06.522Z,4.33
2022-12-01T13:38:31.080Z,4.28
2022-12-01T13:42:44.063Z,4.50
2022-12-01T13:47:05.405Z,4.61
2022-12-01T13:51:18.180Z,4.39
2022-12-01T13:55:30.662Z,4.04
2022-12-01T14:00:01.329Z,4.02
2022-12-01T14:04:16.336Z,4.35
2022-12-01T14:08:35.241Z,4.30
2022-12-01T14:12:47.841Z,4.19
2022-12-01T14:17:03.314Z,4.15
2022-12-01T14:21:16.085Z,4.25
2022-12-01T14:25:31.498Z,4.21
2022-12-01T14:29:44.012Z,4.25
2022-12-01T14:34:11.215Z,4.24
2022-12-01T14:38:28.759Z,4.04
2022-12-01T14:43:03.061Z,4.16
2022-12-01T14:47:23.053Z,4.24
2022-12-01T14:51:36.924Z,4.23
2022-12-01T14:55:57.908Z,4.03
2022-12-01T15:00:25.625Z,4.05
2022-12-01T15:05:07.915Z,4.10
2022-12-01T15:09:37.519Z,3.85
2022-12-01T15:13:52.507Z,3.86
2022-12-01T15:18:22.383Z,3.92
2022-12-01T15:22:34.826Z,3.91
2022-12-01T15:26:49.417Z,3.93
2022-12-01T15:31:06.234Z,3.84
2022-12-01T15:35:23.046Z,3.84
2022-12-01T15:39:38.225Z,3.72
2022-12-01T15:43:59.347Z,3.76
2022-12-01T15:48:25.486Z,3.70
2022-12-01T15:52:45.419Z,3.64
2022-12-01T15:56:59.405Z,3.52
2022-12-01T16:01:21.943Z,3.41
2022-12-01T16:05:36.553Z,3.48
2022-12-01T16:10:00.199Z,3.51
2022-12-01T16:14:22.832Z,3.44
2022-12-01T16:18:35.292Z,3.52
2022-12-01T16:22:51.922Z,3.52
2022-12-01T16:27:07.558Z,3.41
2022-12-01T16:31:20.586Z,3.42
2022-12-01T16:35:34.828Z,3.48
2022-12-01T16:39:47.125Z,3.48
2022-12-01T16:44:20.668Z,3.46
2022-12-01T16:48:41.759Z,3.47
2022-12-01T16:52:54.068Z,3.43
2022-12-01T16:57:06.688Z,3.53
2022-12-01T17:01:19.286Z,3.50
2022-12-01T17:05:31.791Z,3.67
2022-12-01T17:09:44.106Z,3.51
2022-12-01T17:13:56.426Z,3.42
2022-12-01T17:18:08.735Z,3.38
2022-12-01T17:22:21.192Z,3.43
2022-12-01T17:26:34.687Z,3.46
2022-12-01T17:30:47.407Z,3.44
2022-12-01T17:34:59.871Z,3.42
2022-12-01T17:39:12.172Z,3.31
2022-12-01T17:43:24.446Z,3.52
2022-12-01T17:47:36.761Z,3.45
2022-12-01T17:51:49.170Z,3.56
2022-12-01T17:56:01.603Z,3.56
2022-12-01T18:00:14.652Z,3.51
2022-12-01T18:04:26.991Z,3.55
2022-12-01T18:08:40.569Z,3.50
2022-12-01T18:12:56.625Z,3.48
2022-12-01T18:17:08.947Z,3.43
2022-12-01T18:21:23.634Z,3.41
2022-12-01T18:25:37.566Z,3.30
2022-12-01T18:29:59.942Z,3.31
2022-12-01T18:34:12.834Z,3.44
2022-12-01T18:38:25.766Z,3.50
2022-12-01T18:42:39.825Z,3.37
2022-12-01T18:46:52.266Z,3.28
2022-12-01T18:51:06.364Z,3.34
2022-12-01T18:55:18.651Z,3.46
2022-12-01T18:59:31.016Z,3.40
2022-12-01T19:03:43.275Z,3.30
2022-12-01T19:07:55.611Z,3.40
2022-12-01T19:12:08.217Z,3.49
2022-12-01T19:16:20.962Z,3.52
2022-12-01T19:20:38.220Z,3.39
2022-12-01T19:24:51.561Z,3.45
2022-12-01T19:29:04.709Z,3.38
2022-12-01T19:33:17.068Z,3.28
2022-12-01T19:37:29.352Z,3.33
2022-12-01T19:41:41.839Z,3.36
2022-12-01T19:45:54.173Z,3.36
2022-12-01T19:50:07.098Z,3.42
2022-12-01T19:54:20.613Z,3.42
2022-12-01T19:58:34.231Z,3.44
2022-12-01T20:02:46.566Z,3.52
2022-12-01T20:06:59.148Z,3.48
2022-12-01T20:11:13.634Z,3.66
2022-12-01T20:15:25.939Z,3.47
2022-12-01T20:19:38.905Z,3.58
2022-12-01T20:23:55.584Z,3.59
2022-12-01T20:28:07.856Z,3.46
2022-12-01T20:32:23.515Z,3.51
2022-12-01T20:36:36.986Z,3.54
2022-12-01T20:40:59.268Z,3.51
2022-12-01T20:45:11.974Z,3.53
2022-12-01T20:49:24.756Z,3.44
2022-12-01T20:53:37.268Z,3.51
2022-12-01T20:57:49.618Z,3.32
2022-12-01T21:02:02.070Z,3.29
2022-12-01T21:06:16.086Z,3.37
2022-12-01T21:10:29.032Z,3.43
2022-12-01T21:15:02.423Z,3.51
2022-12-01T21:19:21.289Z,3.42
2022-12-01T21:23:43.555Z,3.31
2022-12-01T21:28:00.804Z,3.38
2022-12-01T21:32:44.192Z,3.44
2022-12-01T21:37:15.090Z,3.24
2022-12-01T21:41:31.802Z,3.22
2022-12-01T21:45:44.250Z,3.18
2022-12-01T21:49:58.786Z,3.29
2022-12-01T21:54:20.088Z,3.26
2022-12-01T21:58:37.117Z,3.29
2022-12-01T22:03:10.441Z,3.30
2022-12-01T22:07:22.831Z,3.26
2022-12-01T22:11:35.178Z,3.31
2022-12-01T22:15:47.503Z,3.31
2022-12-01T22:20:03.612Z,3.29
2022-12-01T22:24:40.107Z,3.30
2022-12-01T22:28:56.924Z,3.37
2022-12-01T22:33:20.821Z,3.36
2022-12-01T22:37:46.747Z,3.36
2022-12-01T22:42:02.088Z,3.38
2022-12-01T22:46:38.226Z,3.37
2022-12-01T22:50:52.123Z,3.30
2022-12-01T22:55:15.836Z,3.37
2022-12-01T22:59:34.944Z,3.31
2022-12-01T23:03:47.381Z,3.39
2022-12-01T23:08:13.819Z,3.36
2022-12-01T23:12:33.131Z,3.34
2022-12-01T23:16:45.560Z,3.33
2022-12-01T23:21:00.028Z,3.32
2022-12-01T23:25:15.564Z,3.47
2022-12-01T23:29:27.839Z,3.54
2022-12-01T23:33:40.128Z,3.44
2022-12-01T23:37:54.061Z,3.58
2022-12-01T23:42:06.897Z,3.42
2022-12-01T23:46:23.494Z,3.51
2022-12-01T23:50:35.826Z,3.31
2022-12-01T23:54:49.283Z,3.44
2022-12-01T23:59:13.008Z,3.36
